Список аэропортов
Фактическая погода:

15 августа, 23:30
Температура: +13°C (+13.0*)
Ветер: 0
Давление: *760 мм
Без существ. явл.
Время (МСК)Темп. СВетерВлажностьДавлениеОблачностьОсадки
21:00+17С, 1 м/с76%1012 гПаясно
22:00+15СЗ, 1 м/с88%1012 гПамалооблачно
23:00+14СЗ, 1 м/с92%1013 гПамалооблачно
16 августа
00:00+13СЗ, 1 м/с96%1013 гПамалооблачно
01:00+12З, 1 м/с98%1014 гПамалооблачно
02:00+11З, 1 м/с98%1014 гПамалооблачно
03:00+11ЮЗ, 1 м/с99%1015 гПамалооблачно
04:00+10ЮЗ, 1 м/с99%1015 гПамалооблачно
05:00+10ЮЗ, 1 м/с99%1015 гПамалооблачно
06:00+10ЮЗ, 1 м/с99%1016 гПамалооблачно
07:00+12ЮЗ, 1 м/с98%1016 гПамалооблачно
08:00+14Штиль 94%1017 гПаоблачно
09:00+18Штиль 84%1017 гПаясно
10:00+20Штиль 63%1018 гПаясно
11:00+22СЗ, 1 м/с51%1018 гПаясно
12:00+23Штиль 46%1018 гПамалооблачно
13:00+23СЗ, 1 м/с44%1019 гПас прояснениями
14:00+24Штиль 43%1019 гПас прояснениями
15:00+23ЮЗ, 1 м/с44%1019 гПаоблачно
16:00+23ЮЗ, 2 м/с45%1019 гПаоблачно
17:00+23ЮЗ, 1 м/с44%1019 гПаоблачно
18:00+22ЮЗ, 1 м/с48%1019 гПаоблачно
19:00+21З, 2 м/с53%1019 гПаоблачно
20:00+20З, 2 м/с62%1020 гПас прояснениями
21:00+17З, 1 м/с81%1020 гПамалооблачно
22:00+16Штиль 87%1020 гПас прояснениями
23:00+16Ю, 1 м/с86%1021 гПаоблачно
17 августа
00:00+15Ю, 1 м/с89%1021 гПаоблачно
01:00+15Ю, 1 м/с90%1021 гПаоблачно
02:00+15Ю, 1 м/с89%1022 гПаоблачно
03:00+16Ю, 1 м/с90%1022 гПаоблачно
04:00+16ЮВ, 1 м/с91%1022 гПаоблачно
05:00+15ЮВ, 1 м/с92%1022 гПаоблачно
06:00+15ЮВ, 1 м/с91%1022 гПаоблачно
07:00+16Ю, 2 м/с87%1022 гПаоблачно
08:00+16Ю, 2 м/с83%1022 гПаоблачно
09:00+17ЮВ, 2 м/с79%1023 гПаоблачно
10:00+18Ю, 2 м/с71%1023 гПаоблачно
11:00+20Ю, 3 м/с63%1023 гПаоблачно
12:00+24Ю, 3 м/с46%1023 гПамалооблачно
13:00+25Ю, 3 м/с37%1023 гПамалооблачно
14:00+25Ю, 3 м/с38%1023 гПас прояснениями
15:00+25Ю, 3 м/с40%1022 гПаоблачно
16:00+25Ю, 2 м/с40%1022 гПаоблачно
17:00+25Ю, 2 м/с42%1021 гПаоблачно
18:00+24Ю, 2 м/с44%1021 гПаоблачно
19:00+23ЮВ, 1 м/с52%1021 гПаоблачно
20:00+22ЮВ, 1 м/с61%1020 гПаоблачно
21:00+20ЮВ, 2 м/с70%1021 гПамалооблачно